Time;durP1;ratioP1;P1;durP2;ratioP2;P2;SDS_P1;SDS_P2;PMS_P1;PMS_P2;Temp;Humidity;BMP_temperature;BMP_pressure;BME280_temperature;BME280_humidity;BME280_pressure;Samples;Min_cycle;Max_cycle;Signal;HPM_P1;HPM_P2
2022/01/09 00:01:40;;;;;;;15.32;7.25;;;;;;;4.42;100.00;98674.22;4993921;28;20423;-55
2022/01/09 00:04:05;;;;;;;16.55;8.13;;;;;;;4.42;100.00;98675.03;4993516;28;20375;-55
2022/01/09 00:06:31;;;;;;;15.75;7.75;;;;;;;4.44;100.00;98685.66;4993690;28;20036;-55
2022/01/09 00:08:56;;;;;;;14.90;7.50;;;;;;;4.45;100.00;98687.28;4993668;28;20022;-55
2022/01/09 00:11:28;;;;;;;15.68;7.82;;;;;;;4.47;100.00;98688.56;4993682;28;20026;-55
2022/01/09 00:13:54;;;;;;;16.38;7.68;;;;;;;4.54;100.00;98693.59;4994068;28;20105;-55
2022/01/09 00:16:20;;;;;;;18.48;8.30;;;;;;;4.63;100.00;98696.34;4994120;28;20037;-55
2022/01/09 00:18:46;;;;;;;12.55;6.93;;;;;;;4.72;100.00;98719.09;4993874;28;20406;-55
2022/01/09 00:21:11;;;;;;;14.82;7.35;;;;;;;4.79;100.00;98732.28;4993565;28;20026;-55
2022/01/09 00:23:36;;;;;;;16.10;7.95;;;;;;;4.76;100.00;98738.44;4993545;28;20053;-55
2022/01/09 00:26:02;;;;;;;16.42;7.45;;;;;;;4.87;100.00;98755.38;4991927;28;20065;-55
2022/01/09 00:28:27;;;;;;;13.02;7.60;;;;;;;4.79;100.00;98756.94;4993372;28;20485;-55
2022/01/09 00:30:53;;;;;;;15.77;8.18;;;;;;;4.87;100.00;98763.59;4993758;28;20072;-55
2022/01/09 00:33:21;;;;;;;17.70;8.75;;;;;;;4.81;100.00;98774.69;4993140;28;20073;-54
2022/01/09 00:35:47;;;;;;;16.60;8.57;;;;;;;4.76;100.00;98785.78;4990221;28;20036;-55
2022/01/09 00:38:12;;;;;;;17.25;8.00;;;;;;;4.73;100.00;98789.16;4975008;28;20034;-57
2022/01/09 00:40:38;;;;;;;15.63;7.47;;;;;;;4.80;100.00;98796.91;4975237;28;20030;-56
2022/01/09 00:43:08;;;;;;;18.70;8.40;;;;;;;4.72;100.00;98811.41;4975642;28;20367;-56
2022/01/09 00:45:33;;;;;;;16.30;7.53;;;;;;;4.60;100.00;98809.28;4976232;28;20475;-56
2022/01/09 00:47:58;;;;;;;17.55;7.47;;;;;;;4.72;100.00;98808.66;4975111;28;20030;-58
2022/01/09 00:50:24;;;;;;;18.63;7.65;;;;;;;4.61;100.00;98819.09;4975356;28;20106;-54
2022/01/09 00:52:49;;;;;;;19.08;7.45;;;;;;;4.55;100.00;98823.09;4975672;28;20022;-58
2022/01/09 00:55:14;;;;;;;19.65;7.30;;;;;;;4.52;100.00;98877.38;4975555;28;20114;-53
2022/01/09 00:57:40;;;;;;;19.80;7.93;;;;;;;4.54;100.00;98855.16;4975708;28;20481;-49
2022/01/09 01:00:06;;;;;;;27.40;8.55;;;;;;;4.44;100.00;98852.69;4975598;28;20027;-52
2022/01/09 01:02:32;;;;;;;24.33;9.80;;;;;;;4.44;100.00;98893.75;4975692;28;20030;-52
2022/01/09 01:04:57;;;;;;;23.70;8.27;;;;;;;4.37;100.00;98869.53;4974628;28;20037;-52
2022/01/09 01:07:23;;;;;;;25.50;9.75;;;;;;;4.33;99.90;98868.56;4974029;28;20486;-52
2022/01/09 01:09:48;;;;;;;28.63;10.13;;;;;;;4.21;99.95;98878.16;4974099;28;20027;-50
2022/01/09 01:12:14;;;;;;;25.88;8.73;;;;;;;4.25;100.00;98885.75;4974678;28;20023;-49
2022/01/09 01:14:39;;;;;;;34.13;9.18;;;;;;;4.14;100.00;98894.22;4975090;28;20054;-50
2022/01/09 01:17:05;;;;;;;20.98;8.05;;;;;;;4.10;100.00;98914.31;4974797;28;20030;-50
2022/01/09 01:19:30;;;;;;;27.35;9.90;;;;;;;4.09;100.00;98910.75;4974775;28;20074;-49
2022/01/09 01:21:57;;;;;;;26.55;8.70;;;;;;;4.09;98.87;98909.94;4974431;28;20058;-48
2022/01/09 01:24:23;;;;;;;23.63;8.35;;;;;;;4.04;99.21;98898.00;4974377;28;20033;-50
2022/01/09 01:26:48;;;;;;;24.35;8.30;;;;;;;4.03;99.44;98912.00;4974520;28;20109;-48
2022/01/09 01:29:14;;;;;;;27.95;9.13;;;;;;;3.97;100.00;98905.84;4974876;28;20031;-51
2022/01/09 01:31:39;;;;;;;27.40;9.27;;;;;;;3.94;100.00;98922.84;4975061;28;20030;-48
2022/01/09 01:34:04;;;;;;;26.50;8.60;;;;;;;4.05;100.00;98924.25;4974260;28;20034;-51
2022/01/09 01:36:29;;;;;;;28.70;8.85;;;;;;;4.10;100.00;98930.72;4974930;28;20023;-52
2022/01/09 01:38:55;;;;;;;31.70;10.60;;;;;;;4.11;100.00;98960.50;4974195;28;20027;-51
2022/01/09 01:41:20;;;;;;;36.38;10.60;;;;;;;4.08;100.00;98941.16;4974701;28;20375;-50
2022/01/09 01:43:46;;;;;;;29.77;11.13;;;;;;;4.17;100.00;98953.78;4974571;28;20018;-53
2022/01/09 01:46:11;;;;;;;36.65;10.48;;;;;;;4.22;100.00;98940.00;4974544;28;20027;-54
2022/01/09 01:48:37;;;;;;;24.80;8.65;;;;;;;4.30;100.00;98945.84;4974858;28;20035;-53
2022/01/09 01:51:02;;;;;;;32.88;9.45;;;;;;;4.35;100.00;98951.19;4974648;28;20386;-53
2022/01/09 01:53:28;;;;;;;31.70;9.52;;;;;;;4.36;100.00;98964.56;4974191;28;20439;-52
2022/01/09 01:55:55;;;;;;;30.80;9.60;;;;;;;4.32;100.00;98988.19;4973901;28;20501;-52
2022/01/09 01:58:22;;;;;;;29.35;10.02;;;;;;;4.35;100.00;98987.59;4974283;28;20030;-50
2022/01/09 02:00:48;;;;;;;40.22;10.98;;;;;;;4.41;100.00;98988.28;4973137;28;20034;-48
2022/01/09 02:03:13;;;;;;;26.60;8.73;;;;;;;4.46;100.00;98999.09;4973977;28;20026;-49
2022/01/09 02:05:43;;;;;;;27.25;8.63;;;;;;;4.45;100.00;98997.47;4974246;28;20045;-53
2022/01/09 02:08:08;;;;;;;32.92;9.43;;;;;;;4.35;100.00;98997.72;4973957;28;20419;-52
2022/01/09 02:10:34;;;;;;;32.20;8.63;;;;;;;4.43;100.00;99018.91;4974142;28;20026;-53
2022/01/09 02:12:59;;;;;;;26.38;8.75;;;;;;;4.45;100.00;99013.91;4973506;28;20027;-49
2022/01/09 02:15:39;;;;;;;32.47;9.32;;;;;;;4.33;100.00;99025.41;4973429;28;20097;-53
2022/01/09 02:18:10;;;;;;;29.95;8.73;;;;;;;4.44;100.00;99022.44;4973853;28;20537;-53
2022/01/09 02:20:36;;;;;;;27.52;8.75;;;;;;;4.49;100.00;99042.31;4972687;28;20397;-51
2022/01/09 02:23:03;;;;;;;32.50;8.70;;;;;;;4.50;100.00;99043.09;4973931;28;20438;-52
2022/01/09 02:25:29;;;;;;;31.35;9.05;;;;;;;4.51;100.00;99051.03;4973947;28;20065;-52
2022/01/09 02:27:54;;;;;;;28.98;8.75;;;;;;;4.57;100.00;99056.38;4973984;28;20102;-51
2022/01/09 02:30:20;;;;;;;30.70;9.02;;;;;;;4.55;100.00;99066.81;4973485;28;20030;-53
2022/01/09 02:32:45;;;;;;;26.40;7.88;;;;;;;4.67;98.91;99072.56;4973861;28;20030;-53
2022/01/09 02:35:10;;;;;;;29.88;9.15;;;;;;;4.55;98.82;99075.84;4973938;28;20027;-53
2022/01/09 02:37:36;;;;;;;28.35;8.23;;;;;;;4.68;97.83;99077.72;4972630;28;20401;-52
2022/01/09 02:40:03;;;;;;;29.02;8.82;;;;;;;4.69;98.22;99079.34;4973770;28;20039;-52
2022/01/09 02:42:30;;;;;;;30.00;9.02;;;;;;;4.63;98.28;99090.75;4973909;28;20041;-50
2022/01/09 02:44:56;;;;;;;20.52;7.35;;;;;;;4.67;97.13;99099.97;4973413;28;20019;-50
2022/01/09 02:47:22;;;;;;;28.30;8.88;;;;;;;4.59;97.11;99100.69;4973523;28;20045;-54
2022/01/09 02:49:51;;;;;;;28.20;9.00;;;;;;;4.55;97.91;99110.63;4974090;28;20114;-53
2022/01/09 02:55:10;;;;;;;28.17;8.23;;;;;;;4.65;96.52;99113.97;4974442;28;20071;-52
2022/01/09 02:57:36;;;;;;;23.15;7.78;;;;;;;4.60;96.67;99122.28;4974048;28;20053;-54
2022/01/09 03:00:01;;;;;;;25.10;7.47;;;;;;;4.68;95.90;99126.22;4973610;28;20077;-53
2022/01/09 03:02:26;;;;;;;28.00;8.05;;;;;;;4.56;96.79;99136.91;4973125;28;20023;-53
2022/01/09 03:04:51;;;;;;;30.90;9.02;;;;;;;4.55;96.64;99152.53;4973342;28;20027;-52
2022/01/09 03:07:17;;;;;;;32.75;9.43;;;;;;;4.57;95.26;99138.53;4973593;28;20022;-54
2022/01/09 03:09:42;;;;;;;27.35;8.55;;;;;;;4.63;95.51;99146.34;4973402;28;20130;-53
2022/01/09 03:12:10;;;;;;;28.05;8.27;;;;;;;4.74;94.36;99155.13;4974243;28;20390;-48
2022/01/09 03:14:36;;;;;;;25.33;7.18;;;;;;;4.61;95.58;99167.72;4976719;28;20037;-50
2022/01/09 03:17:01;;;;;;;26.92;7.43;;;;;;;4.58;96.60;99170.28;4976692;28;20043;-51
2022/01/09 03:19:27;;;;;;;26.70;8.60;;;;;;;4.63;93.82;99175.66;4977249;28;20128;-51
2022/01/09 03:21:52;;;;;;;25.15;7.50;;;;;;;4.61;95.02;99175.94;4977053;28;20435;-53
2022/01/09 03:24:17;;;;;;;23.25;7.78;;;;;;;4.78;93.79;99196.41;4976653;28;20042;-53
2022/01/09 03:26:43;;;;;;;29.02;7.72;;;;;;;4.64;92.94;99190.94;4976822;28;20390;-52
2022/01/09 03:29:08;;;;;;;17.60;6.78;;;;;;;4.84;92.55;99198.72;4976907;28;20038;-52
2022/01/09 03:31:33;;;;;;;27.83;7.80;;;;;;;4.79;93.09;99209.00;4975949;28;20061;-50
2022/01/09 03:33:58;;;;;;;22.92;7.45;;;;;;;4.66;93.92;99208.72;4976858;28;20452;-51
2022/01/09 03:36:24;;;;;;;25.50;7.85;;;;;;;4.64;93.79;99219.19;4976660;28;20027;-53
2022/01/09 03:38:49;;;;;;;26.08;7.55;;;;;;;4.69;93.79;99213.56;4977179;28;20042;-53
2022/01/09 03:41:14;;;;;;;20.95;7.80;;;;;;;4.65;94.04;99223.53;4976646;28;20027;-51
2022/01/09 03:43:39;;;;;;;22.90;8.38;;;;;;;4.68;93.73;99235.81;4976802;28;20066;-51
2022/01/09 03:46:05;;;;;;;25.73;7.50;;;;;;;4.76;92.75;99237.81;4976419;28;20027;-53
2022/01/09 03:48:32;;;;;;;23.85;8.02;;;;;;;4.67;92.78;99243.22;4976384;28;20034;-49
2022/01/09 03:50:57;;;;;;;25.35;8.23;;;;;;;4.64;91.79;99256.69;4977273;28;20023;-50
2022/01/09 03:53:22;;;;;;;19.15;7.22;;;;;;;4.71;92.23;99261.78;4976921;28;20054;-51
2022/01/09 03:55:47;;;;;;;23.52;7.35;;;;;;;4.62;92.49;99267.16;4976332;28;20047;-54
2022/01/09 03:58:13;;;;;;;21.15;7.43;;;;;;;4.68;92.38;99261.25;4975559;28;20027;-54
2022/01/09 04:00:38;;;;;;;19.92;6.88;;;;;;;4.61;91.94;99276.50;4976418;28;20434;-53
2022/01/09 04:03:03;;;;;;;25.00;7.68;;;;;;;4.59;91.80;99285.00;4975569;28;20034;-50
2022/01/09 04:05:28;;;;;;;26.05;7.78;;;;;;;4.60;91.71;99300.31;4976357;28;20027;-52
2022/01/09 04:07:54;;;;;;;21.85;7.22;;;;;;;4.59;91.60;99300.63;4976575;28;20023;-51
2022/01/09 04:10:22;;;;;;;23.83;7.65;;;;;;;4.59;90.44;99312.38;4976079;28;20023;-48
2022/01/09 04:12:48;;;;;;;23.98;7.10;;;;;;;4.59;91.12;99301.44;4976447;28;20085;-53
2022/01/09 04:15:14;;;;;;;20.23;7.32;;;;;;;4.57;89.92;99311.91;4976369;28;20035;-49
2022/01/09 04:17:54;;;;;;;17.30;6.75;;;;;;;4.52;90.80;99320.19;4975832;28;20058;-51
2022/01/09 04:20:21;;;;;;;15.98;6.78;;;;;;;4.56;90.30;99323.97;4975916;28;20278;-49
2022/01/09 04:22:48;;;;;;;24.80;7.13;;;;;;;4.45;90.01;99333.50;4975376;28;20033;-52
2022/01/09 04:25:14;;;;;;;20.05;6.90;;;;;;;4.59;88.15;99337.03;4975677;28;20038;-50
2022/01/09 04:27:39;;;;;;;21.15;6.38;;;;;;;4.54;87.18;99345.38;4976184;28;20026;-50
2022/01/09 04:30:06;;;;;;;21.92;7.05;;;;;;;4.48;87.89;99347.38;4976165;28;20086;-50
2022/01/09 04:32:32;;;;;;;23.55;6.63;;;;;;;4.43;89.04;99361.19;4975701;28;20065;-53
2022/01/09 04:34:57;;;;;;;22.65;6.90;;;;;;;4.38;89.15;99366.75;4975664;28;20037;-52
2022/01/09 04:37:23;;;;;;;22.88;6.90;;;;;;;4.35;89.86;99368.16;4975662;28;20042;-50
2022/01/09 04:39:50;;;;;;;23.23;7.50;;;;;;;4.40;89.58;99374.63;4975868;28;20421;-53
2022/01/09 04:42:16;;;;;;;21.27;6.90;;;;;;;4.37;89.77;99376.06;4975639;28;20034;-52
2022/01/09 04:44:42;;;;;;;22.27;6.55;;;;;;;4.31;90.77;99374.53;4975857;28;20030;-53
2022/01/09 04:47:12;;;;;;;20.63;6.55;;;;;;;4.32;90.17;99384.38;4976040;28;20030;-51
2022/01/09 04:49:40;;;;;;;24.92;6.78;;;;;;;4.30;90.59;99397.53;4975109;28;20438;-50
2022/01/09 04:52:09;;;;;;;24.17;7.15;;;;;;;4.27;89.49;99401.69;4975561;28;20022;-50
2022/01/09 04:54:34;;;;;;;21.92;7.00;;;;;;;4.19;90.86;99403.19;4975483;28;20062;-49
2022/01/09 04:57:01;;;;;;;21.40;6.70;;;;;;;4.19;89.82;99399.66;4975543;28;20386;-49
2022/01/09 04:59:28;;;;;;;21.08;7.68;;;;;;;4.28;89.19;99417.03;4975154;28;20151;-53
2022/01/09 05:01:53;;;;;;;21.25;7.53;;;;;;;4.19;89.61;99421.56;4975389;28;20031;-48
2022/01/09 05:04:18;;;;;;;22.40;7.10;;;;;;;4.20;88.50;99426.72;4974859;28;20023;-49
2022/01/09 05:06:44;;;;;;;21.35;7.07;;;;;;;4.13;89.40;99445.44;4975124;28;20030;-49
2022/01/09 05:09:10;;;;;;;22.15;7.10;;;;;;;4.10;89.62;99448.78;4974959;28;20493;-52
2022/01/09 05:11:36;;;;;;;20.50;7.05;;;;;;;3.97;90.01;99444.06;4975367;28;20034;-53
2022/01/09 05:14:01;;;;;;;19.70;6.82;;;;;;;4.00;88.69;99446.19;4975546;28;20031;-49
2022/01/09 05:16:26;;;;;;;22.00;6.88;;;;;;;4.03;89.31;99465.56;4975032;28;20023;-52
2022/01/09 05:18:54;;;;;;;23.10;7.25;;;;;;;3.99;88.65;99471.91;4974903;28;20037;-52
2022/01/09 05:21:20;;;;;;;21.08;7.25;;;;;;;4.01;88.90;99478.75;4974185;28;20026;-53
2022/01/09 05:23:46;;;;;;;19.42;7.40;;;;;;;3.99;89.10;99480.13;4974698;28;20038;-52
2022/01/09 05:26:11;;;;;;;22.35;7.18;;;;;;;3.95;89.88;99488.13;4975070;28;20033;-51
2022/01/09 05:28:36;;;;;;;19.40;7.50;;;;;;;3.93;89.41;99490.31;4974784;28;20030;-54
2022/01/09 05:31:02;;;;;;;23.50;6.95;;;;;;;3.88;89.83;99506.84;4974828;28;20031;-52
2022/01/09 05:33:27;;;;;;;19.00;6.72;;;;;;;3.90;90.13;99505.41;4974634;28;20461;-53
2022/01/09 05:35:52;;;;;;;25.23;7.22;;;;;;;3.86;89.70;99506.31;4974312;28;20124;-50
2022/01/09 05:38:18;;;;;;;24.17;7.40;;;;;;;3.94;89.02;99510.31;4974305;28;20023;-53
2022/01/09 05:40:44;;;;;;;18.85;6.53;;;;;;;3.91;89.27;99514.47;4974559;28;20042;-50
2022/01/09 05:43:11;;;;;;;20.50;6.50;;;;;;;3.92;88.55;99513.31;4974669;28;20031;-53
2022/01/09 05:45:36;;;;;;;18.50;7.03;;;;;;;3.86;89.69;99517.25;4974859;28;20394;-53
2022/01/09 05:48:02;;;;;;;22.40;7.30;;;;;;;3.87;89.30;99522.41;4974789;28;20126;-49
2022/01/09 05:50:27;;;;;;;22.30;8.30;;;;;;;3.85;88.55;99524.66;4974814;28;20343;-51
2022/01/09 05:52:53;;;;;;;21.20;6.95;;;;;;;3.83;89.12;99535.06;4974353;28;20458;-49
2022/01/09 05:55:18;;;;;;;17.17;6.53;;;;;;;3.84;89.29;99533.97;4974010;28;20047;-50
2022/01/09 05:57:43;;;;;;;16.73;6.85;;;;;;;3.91;88.67;99528.13;4972673;28;20022;-50
2022/01/09 06:00:09;;;;;;;16.83;6.75;;;;;;;3.90;88.33;99540.19;4974318;28;20038;-50
2022/01/09 06:02:34;;;;;;;18.35;7.20;;;;;;;3.83;89.84;99554.22;4974175;28;20031;-53
2022/01/09 06:05:00;;;;;;;17.40;6.72;;;;;;;3.79;89.33;99555.91;4973698;28;20019;-53
2022/01/09 06:07:25;;;;;;;21.02;7.30;;;;;;;3.81;89.49;99552.88;4973616;28;20019;-49
2022/01/09 06:09:50;;;;;;;23.52;7.85;;;;;;;3.79;90.18;99568.78;4973833;28;20041;-52
2022/01/09 06:12:15;;;;;;;25.83;7.50;;;;;;;3.72;90.34;99561.75;4973848;28;20041;-54
2022/01/09 06:14:41;;;;;;;21.73;7.03;;;;;;;3.81;88.60;99561.09;4974286;28;20027;-53
2022/01/09 06:17:07;;;;;;;21.17;7.47;;;;;;;3.74;89.33;99561.44;4974124;28;20534;-52
2022/01/09 06:19:32;;;;;;;21.55;7.22;;;;;;;3.73;89.32;99562.56;4974001;28;20050;-54
2022/01/09 06:21:57;;;;;;;18.08;7.30;;;;;;;3.82;88.66;99571.75;4973394;28;20506;-53
2022/01/09 06:24:23;;;;;;;19.45;7.15;;;;;;;3.74;89.29;99575.94;4973749;28;20034;-50
2022/01/09 06:26:48;;;;;;;20.95;7.60;;;;;;;3.80;89.37;99573.94;4973944;28;20033;-53
2022/01/09 06:29:13;;;;;;;21.33;7.65;;;;;;;3.71;90.21;99586.63;4973879;28;20085;-52
2022/01/09 06:31:39;;;;;;;20.48;7.60;;;;;;;3.68;91.41;99596.25;4972953;28;20031;-53
2022/01/09 06:34:04;;;;;;;22.35;8.18;;;;;;;3.64;91.43;99591.66;4973845;28;20035;-53
2022/01/09 06:36:29;;;;;;;25.42;8.48;;;;;;;3.65;91.14;99591.34;4973696;28;20110;-53
2022/01/09 06:38:55;;;;;;;21.23;8.63;;;;;;;3.61;91.90;99589.47;4973448;28;20034;-53
2022/01/09 06:41:20;;;;;;;22.63;7.78;;;;;;;3.66;91.57;99594.91;4973816;28;20031;-51
2022/01/09 06:43:45;;;;;;;27.15;9.15;;;;;;;3.66;91.66;99601.19;4973836;28;20035;-51
2022/01/09 06:46:11;;;;;;;16.63;6.97;;;;;;;3.72;90.72;99610.16;4974306;28;20038;-52
2022/01/09 06:48:36;;;;;;;18.67;7.15;;;;;;;3.83;89.50;99617.16;4977982;28;20524;-52
2022/01/09 06:51:01;;;;;;;21.52;7.90;;;;;;;3.89;89.72;99626.13;4977839;28;20394;-52
2022/01/09 06:53:27;;;;;;;14.10;7.00;;;;;;;3.96;88.19;99625.78;4976640;28;20027;-53
2022/01/09 06:55:52;;;;;;;18.38;6.78;;;;;;;3.90;88.94;99638.69;4977087;28;20042;-53
2022/01/09 06:58:21;;;;;;;17.38;6.95;;;;;;;3.85;89.80;99644.22;4977535;28;20065;-49
2022/01/09 07:00:47;;;;;;;17.40;6.88;;;;;;;3.86;90.07;99648.56;4978017;28;20054;-51
2022/01/09 07:03:12;;;;;;;15.15;7.30;;;;;;;3.70;91.32;99650.66;4977440;28;20525;-49
2022/01/09 07:05:37;;;;;;;20.33;8.20;;;;;;;3.72;91.38;99651.19;4977857;28;20493;-49
2022/01/09 07:08:03;;;;;;;22.80;8.90;;;;;;;3.67;92.00;99643.84;4976803;28;20027;-51
2022/01/09 07:10:28;;;;;;;24.25;8.45;;;;;;;3.69;92.41;99659.97;4976861;28;20034;-50
2022/01/09 07:12:53;;;;;;;20.48;7.57;;;;;;;3.74;91.58;99657.19;4977122;28;20050;-52
2022/01/09 07:15:18;;;;;;;25.38;9.77;;;;;;;3.68;92.48;99672.84;4976990;28;20042;-49
2022/01/09 07:17:44;;;;;;;22.98;8.23;;;;;;;3.72;91.98;99670.34;4977130;28;20462;-51
2022/01/09 07:20:10;;;;;;;19.88;8.18;;;;;;;3.74;92.46;99676.34;4976754;28;20030;-50
2022/01/09 07:22:35;;;;;;;22.50;8.15;;;;;;;3.69;93.17;99679.94;4976673;28;20041;-51
2022/01/09 07:25:00;;;;;;;20.75;8.35;;;;;;;3.75;92.49;99676.03;4976347;28;20053;-48
2022/01/09 07:27:26;;;;;;;21.77;8.20;;;;;;;3.68;93.20;99689.25;4976969;28;20049;-49
2022/01/09 07:29:51;;;;;;;24.65;8.15;;;;;;;3.72;92.36;99690.31;4977157;28;20034;-50
2022/01/09 07:32:16;;;;;;;21.27;8.50;;;;;;;3.69;93.38;99682.69;4976800;28;20478;-49
2022/01/09 07:34:42;;;;;;;21.92;8.38;;;;;;;3.69;93.11;99693.63;4977225;28;20537;-51
2022/01/09 07:37:07;;;;;;;21.48;7.65;;;;;;;3.63;93.35;99685.75;4977094;28;20470;-49
2022/01/09 07:39:33;;;;;;;22.30;7.60;;;;;;;3.64;92.81;99690.91;4976509;28;20026;-48
2022/01/09 07:41:59;;;;;;;24.85;9.35;;;;;;;3.65;92.98;99703.50;4977374;28;20474;-49
2022/01/09 07:44:25;;;;;;;21.80;8.00;;;;;;;3.64;93.29;99704.59;4976788;28;20489;-49
2022/01/09 07:46:51;;;;;;;21.35;7.70;;;;;;;3.71;92.98;99702.34;4976434;28;20031;-51
2022/01/09 07:49:16;;;;;;;23.02;8.15;;;;;;;3.70;92.57;99719.88;4976642;28;20029;-51
2022/01/09 07:51:41;;;;;;;19.90;7.55;;;;;;;3.62;93.52;99719.66;4976890;28;20026;-49
2022/01/09 07:54:06;;;;;;;24.38;8.13;;;;;;;3.64;93.09;99721.00;4976761;28;20047;-49
2022/01/09 07:56:32;;;;;;;17.45;7.40;;;;;;;3.72;92.51;99735.97;4984978;28;20026;-49
2022/01/09 07:58:57;;;;;;;22.90;7.30;;;;;;;3.67;92.54;99734.09;4995711;28;20101;-49
2022/01/09 08:01:22;;;;;;;20.35;7.65;;;;;;;3.69;92.56;99737.38;4995695;28;20034;-50
2022/01/09 08:03:48;;;;;;;18.58;7.70;;;;;;;3.68;92.48;99743.94;4995687;28;20429;-52
2022/01/09 08:06:13;;;;;;;23.95;8.75;;;;;;;3.67;92.89;99744.25;4995486;28;20097;-50
2022/01/09 08:08:38;;;;;;;22.73;7.93;;;;;;;3.63;93.49;99744.00;4995760;28;20018;-49
2022/01/09 08:11:04;;;;;;;20.23;7.30;;;;;;;3.63;94.08;99752.22;4995543;28;20146;-49
2022/01/09 08:13:29;;;;;;;18.67;6.43;;;;;;;3.63;93.25;99756.84;4995469;28;20031;-51
2022/01/09 08:15:54;;;;;;;21.65;7.50;;;;;;;3.57;94.30;99765.13;4995308;28;20100;-49
2022/01/09 08:18:19;;;;;;;18.10;7.10;;;;;;;3.57;94.05;99767.84;4994118;28;20031;-51
2022/01/09 08:20:45;;;;;;;18.58;7.25;;;;;;;3.54;93.31;99775.81;4996013;28;20030;-51
2022/01/09 08:23:10;;;;;;;22.75;7.30;;;;;;;3.53;93.46;99765.97;4994845;28;20030;-50
2022/01/09 08:25:35;;;;;;;19.52;6.72;;;;;;;3.53;93.20;99777.72;4994684;28;20062;-50
2022/01/09 08:28:01;;;;;;;22.42;8.05;;;;;;;3.54;93.12;99776.63;4995507;28;20034;-49
2022/01/09 08:30:26;;;;;;;22.90;6.90;;;;;;;3.52;93.94;99776.06;4995485;28;20055;-50
2022/01/09 08:32:52;;;;;;;18.55;6.38;;;;;;;3.48;93.46;99783.22;4995718;28;20089;-51
2022/01/09 08:35:19;;;;;;;19.35;6.55;;;;;;;3.54;93.58;99789.47;4995502;28;20438;-50
2022/01/09 08:37:44;;;;;;;19.88;6.47;;;;;;;3.54;93.37;99792.22;4995459;28;20030;-52
2022/01/09 08:40:12;;;;;;;18.42;6.30;;;;;;;3.53;93.48;99791.38;4995407;28;20462;-51
2022/01/09 08:42:40;;;;;;;16.13;6.60;;;;;;;3.63;94.22;99800.63;4995523;28;20122;-52
2022/01/09 08:45:05;;;;;;;19.50;6.75;;;;;;;3.73;93.42;99797.81;4995316;28;20474;-50
2022/01/09 08:47:30;;;;;;;22.50;6.63;;;;;;;3.77;94.06;99798.03;4995133;28;20041;-52
2022/01/09 08:49:56;;;;;;;17.15;6.68;;;;;;;3.80;92.67;99809.22;4994804;28;20018;-53
2022/01/09 08:52:21;;;;;;;20.30;6.40;;;;;;;3.80;92.89;99814.69;4994561;28;20045;-53
2022/01/09 08:54:46;;;;;;;16.52;6.70;;;;;;;3.82;92.45;99817.97;4994647;28;20438;-52
2022/01/09 08:57:11;;;;;;;22.23;6.63;;;;;;;3.80;93.04;99813.91;4995162;28;20041;-51
2022/01/09 08:59:37;;;;;;;18.15;6.10;;;;;;;3.84;92.41;99828.63;4994874;28;20042;-52
2022/01/09 09:02:02;;;;;;;20.13;6.80;;;;;;;3.88;91.50;99827.75;4995045;28;20030;-54
2022/01/09 09:04:28;;;;;;;20.17;6.50;;;;;;;3.84;91.71;99823.16;4993557;28;20048;-51
2022/01/09 09:06:53;;;;;;;21.20;6.85;;;;;;;3.82;92.26;99836.31;4995012;28;20034;-54
2022/01/09 09:09:18;;;;;;;23.67;6.30;;;;;;;3.81;92.33;99835.50;4994386;28;20038;-53
2022/01/09 09:11:43;;;;;;;17.38;6.35;;;;;;;3.86;92.33;99845.56;4994542;28;20019;-53
2022/01/09 09:14:09;;;;;;;20.70;6.90;;;;;;;3.90;92.43;99838.44;4994377;28;20037;-53
2022/01/09 09:16:34;;;;;;;21.02;6.45;;;;;;;3.90;92.75;99857.59;4994534;28;20030;-53
2022/01/09 09:18:59;;;;;;;19.98;6.65;;;;;;;3.97;92.82;99858.06;4994739;28;20030;-53
2022/01/09 09:21:25;;;;;;;20.98;6.50;;;;;;;4.00;92.86;99864.88;4994003;28;20066;-53
2022/01/09 09:23:50;;;;;;;22.10;6.68;;;;;;;4.05;92.67;99873.06;4994411;28;20108;-53
2022/01/09 09:26:21;;;;;;;19.10;6.78;;;;;;;4.04;93.10;99869.50;4985686;28;20109;-52
2022/01/09 09:28:46;;;;;;;20.63;7.00;;;;;;;4.03;92.58;99881.56;4972909;28;20031;-51
2022/01/09 09:31:11;;;;;;;20.60;7.13;;;;;;;4.10;92.25;99877.69;4989436;28;20063;-51
2022/01/09 09:33:37;;;;;;;17.23;6.35;;;;;;;4.12;92.09;99886.41;4992310;28;20488;-49
2022/01/09 09:36:03;;;;;;;18.38;6.60;;;;;;;4.10;92.12;99881.22;4992300;28;20041;-53
2022/01/09 09:38:32;;;;;;;21.20;6.70;;;;;;;4.10;92.15;99886.72;4991922;28;20026;-52
2022/01/09 09:40:58;;;;;;;20.00;6.03;;;;;;;4.18;91.00;99882.53;4992091;28;20037;-48
2022/01/09 09:43:23;;;;;;;16.55;5.93;;;;;;;4.20;90.14;99891.28;4991787;28;20038;-49
2022/01/09 09:45:49;;;;;;;19.23;6.40;;;;;;;4.25;89.76;99896.72;4991967;28;20033;-53
2022/01/09 09:48:14;;;;;;;18.10;6.13;;;;;;;4.29;90.16;99895.06;4991337;28;20026;-50
2022/01/09 09:50:40;;;;;;;16.77;6.00;;;;;;;4.32;90.43;99899.94;4991845;28;20113;-53
2022/01/09 09:53:05;;;;;;;17.13;6.85;;;;;;;4.39;89.57;99907.81;4991648;28;20113;-53
2022/01/09 09:55:31;;;;;;;20.42;6.03;;;;;;;4.41;89.07;99905.63;4991179;28;20058;-53
2022/01/09 09:57:57;;;;;;;17.02;6.45;;;;;;;4.38;90.50;99908.91;4991589;28;20022;-50
2022/01/09 10:00:23;;;;;;;17.00;6.80;;;;;;;4.41;90.26;99913.00;4991821;28;20034;-51
2022/01/09 10:02:51;;;;;;;19.17;6.22;;;;;;;4.45;89.92;99912.13;4991818;28;20038;-51
2022/01/09 10:05:22;;;;;;;19.08;6.57;;;;;;;4.53;90.70;99913.44;4991568;28;20038;-53
2022/01/09 10:07:47;;;;;;;19.20;6.75;;;;;;;4.62;89.61;99924.59;4991782;28;20022;-52
2022/01/09 10:10:16;;;;;;;19.27;6.82;;;;;;;4.62;89.79;99922.66;4991427;28;20508;-50
2022/01/09 10:12:44;;;;;;;17.52;6.63;;;;;;;4.63;88.89;99918.81;4989866;28;20530;-50
2022/01/09 10:15:13;;;;;;;15.68;6.00;;;;;;;4.66;88.43;99917.41;4990473;28;20051;-53
2022/01/09 10:17:44;;;;;;;17.67;6.13;;;;;;;4.59;88.32;99911.47;4989651;28;20113;-53
2022/01/09 10:20:21;;;;;;;18.05;6.00;;;;;;;4.61;88.74;99928.44;4991432;28;20034;-52
2022/01/09 10:22:48;;;;;;;16.48;6.18;;;;;;;4.59;87.86;99927.91;4991171;28;20026;-54
2022/01/09 10:25:46;;;;;;;20.42;6.88;;;;;;;4.61;87.11;99932.00;4991390;28;20034;-53
2022/01/09 10:28:20;;;;;;;20.90;6.80;;;;;;;4.43;88.88;99925.31;4989230;28;20070;-52
2022/01/09 10:30:47;;;;;;;21.48;6.85;;;;;;;4.45;89.99;99938.72;4991516;28;20120;-54
2022/01/09 10:33:16;;;;;;;16.65;6.30;;;;;;;4.50;88.42;99939.50;4991113;28;20037;-50
2022/01/09 10:35:44;;;;;;;20.40;7.20;;;;;;;4.40;89.63;99934.09;4991407;28;20027;-50
2022/01/09 10:38:11;;;;;;;20.65;8.18;;;;;;;4.47;90.35;99942.78;4991203;28;20019;-51
2022/01/09 10:40:38;;;;;;;22.13;6.78;;;;;;;4.50;89.07;99946.88;4991560;28;20027;-50
2022/01/09 10:43:07;;;;;;;22.63;7.80;;;;;;;4.43;89.97;99952.72;4991186;28;20030;-50
2022/01/09 10:45:33;;;;;;;18.23;6.18;;;;;;;4.62;88.72;99962.97;4990868;28;20042;-51
2022/01/09 10:48:04;;;;;;;20.13;7.22;;;;;;;4.48;90.04;99954.59;4991321;28;20076;-52
2022/01/09 10:50:33;;;;;;;21.52;7.20;;;;;;;4.53;89.06;99951.78;4990905;28;20033;-54
2022/01/09 10:53:19;;;;;;;17.15;6.85;;;;;;;4.55;89.75;99956.97;4990978;28;20486;-52
2022/01/09 10:55:48;;;;;;;17.65;6.53;;;;;;;4.60;89.58;99957.75;4991027;28;20413;-50
2022/01/09 10:58:19;;;;;;;19.52;6.88;;;;;;;4.67;89.35;99965.63;4990874;28;20081;-53
2022/01/09 11:00:46;;;;;;;20.60;6.75;;;;;;;4.74;89.33;99968.84;4991039;28;20030;-53
2022/01/09 11:03:11;;;;;;;19.65;7.20;;;;;;;4.79;90.53;99968.81;4991415;28;20113;-51
2022/01/09 11:05:37;;;;;;;19.45;7.43;;;;;;;4.81;89.80;99963.88;4990958;28;20121;-52
2022/01/09 11:08:03;;;;;;;19.98;6.95;;;;;;;4.89;89.61;99976.09;4990999;28;20062;-53
2022/01/09 11:10:30;;;;;;;25.33;7.40;;;;;;;4.92;89.91;99978.28;4990931;28;20069;-50
2022/01/09 11:12:59;;;;;;;20.05;7.43;;;;;;;4.93;91.30;99984.56;4991025;28;20034;-51
2022/01/09 11:15:29;;;;;;;24.83;7.95;;;;;;;5.03;90.47;99978.97;4989010;28;20031;-49
2022/01/09 11:17:58;;;;;;;23.15;7.30;;;;;;;5.11;90.07;99981.09;4991436;28;20493;-49
2022/01/09 11:20:23;;;;;;;21.42;7.93;;;;;;;5.19;90.28;99985.13;4990879;28;20052;-53
2022/01/09 11:22:49;;;;;;;22.08;8.23;;;;;;;5.25;91.12;99985.88;4990963;28;20526;-50
2022/01/09 11:25:40;;;;;;;23.52;8.05;;;;;;;5.36;90.60;99989.31;4990805;28;20039;-52
2022/01/09 11:28:27;;;;;;;23.90;7.15;;;;;;;5.40;89.98;99966.50;4990595;28;20477;-52
2022/01/09 11:31:00;;;;;;;22.92;7.30;;;;;;;5.57;89.37;99987.16;4990988;28;20046;-50